Clearmont, Wyoming
Current Conditions -  °F | °C
As of 1:53 PM on Thursday 18 Dec 2014 (Local Time) from KBYG Reporting Station
Clear Clear  
Wind Chill: 35°   Ceiling: Unl
Heat Index: 41°   Visibility: 10mi
Dew Point: 15°   Wind: 10mph
Humidity: 35%   Direction: 170°S
Pressure: 29.96"   Gusts: NA
Location:  44.64°N, 106.38°W
Report Text: KBYG 182053Z AUTO 17009KT 10SM CLR 05/M09 A2996 RMK AO2 SLP165 T00501094 56012
Loading
Personal Weather Stations






























Interactive Weather Map New forecast layout! Learn more

10-Day Weather Forecast

Advertisements
Track Severe Weather on mobile